Fort Worth Nas Jrb/Carswell field
KNFW : now visible

Airfield :











YOU CAN JOIN US ON...

 
LOGIN :

Register | Disclaimer

   EN    FR    IT 

 









Legend :    VFR   Marginal VFR   IFR   Intensive IFR   Very Intensive IFR
Visi :
Ceiling :
>= 8 km
>= 3000ft
5 to 8 km
1000 to 3000 ft
1500m to 5 km
500 to 1000 ft
800 to 1500m
200 to 500 ft
< 800m
< 200 ft
Symbols :   Thunderstorms  Fog  Heavy snow  Heavy precipitations  Wind > 20 kt






- Airport Elevation : 650 ft


KNFW - Fort Worth Nas Jrb/Carswell field

CURRENT METAR :
  • 170152Z AUTO 17011KT CLR 28/12 A2983 RMK AO2 SLP086 T02780117 VISNO N $

EXPIRED METARs :
  • 170052Z AUTO 17006KT CLR 29/07 A2982 RMK AO2 SLP083 T02890067 VISNO N $

TAF TAF KNFW
Valid from the 16 at 23:00 until the 17 at 23:00 UTC


1623/1723 VRB06KT 9999 FEW040 FEW200 FEW250 QNH2979INS
BECMG 1703/1705 VRB06KT 8000 BR FEW250 QNH2976INS
BECMG 1706/1708 19007KT 4800 BR SKC QNH2976INS
TEMPO 1710/1714 4000 BR
BECMG 1714/1715 20013KT 8000 BR SKC QNH2978INS AUTOMATED SENSOR METWATCH 1623 TIL 1811 T10/1715Z T20/1721Z FN00223



MET'MAP, your aeronautical weather chart ! - Copyright ORBIFLY December 2007 - Disclaimer

ORBIFLY MET'MAP TEAM :

Programming & Development : Alexandra Zaïnal
Concept & original design : Baudouin d'Aumeries
Assistance for programming : Marc-Olivier Méhu
Technical & hardware support : Manuel Goepfert

Contact : metmap@orbifly.com




SOURCES & CREDITS :

   NOAA       Earth
Advisory